createdAt,value
2018-09-20T00:00:59.690Z,21.12
2018-09-20T00:01:59.848Z,21.12
2018-09-20T00:02:59.715Z,21.12
2018-09-20T00:04:00.057Z,21.12
2018-09-20T00:04:59.921Z,21.12
2018-09-20T00:06:00.129Z,21.12
2018-09-20T00:06:59.813Z,21.12
2018-09-20T00:08:00.054Z,21.12
2018-09-20T00:08:59.798Z,21.1
2018-09-20T00:09:59.898Z,21.11
2018-09-20T00:10:59.997Z,21.12
2018-09-20T00:12:00.271Z,21.1
2018-09-20T00:12:59.986Z,21.1
2018-09-20T00:13:59.845Z,21.11
2018-09-20T00:14:59.738Z,21.11
2018-09-20T00:15:59.770Z,21.1
2018-09-20T00:16:59.813Z,21.1
2018-09-20T00:18:00.127Z,21.11
2018-09-20T00:18:59.809Z,21.1
2018-09-20T00:19:59.840Z,21.11
2018-09-20T00:20:59.787Z,21.1
2018-09-20T00:21:59.708Z,21.09
2018-09-20T00:22:59.616Z,21.09
2018-09-20T00:24:00.385Z,21.08
2018-09-20T00:25:00.030Z,21.09
2018-09-20T00:25:59.913Z,21.1
2018-09-20T00:27:00.056Z,21.09
2018-09-20T00:27:59.802Z,21.1
2018-09-20T00:28:59.802Z,21.09
2018-09-20T00:29:59.856Z,21.09
2018-09-20T00:30:59.843Z,21.1
2018-09-20T00:32:00.001Z,21.08
2018-09-20T00:32:59.888Z,21.08
2018-09-20T00:33:59.753Z,21.08
2018-09-20T00:34:59.996Z,21.09
2018-09-20T00:35:59.984Z,21.07
2018-09-20T00:36:59.699Z,21.08
2018-09-20T00:37:59.937Z,21.08
2018-09-20T00:39:00.029Z,21.08
2018-09-20T00:39:59.752Z,21.07
2018-09-20T00:40:59.915Z,21.07
2018-09-20T00:41:59.718Z,21.07
2018-09-20T00:43:00.103Z,21.07
2018-09-20T00:43:59.726Z,21.07
2018-09-20T00:44:59.831Z,21.08
2018-09-20T00:45:59.720Z,21.08
2018-09-20T00:46:59.821Z,21.07
2018-09-20T00:47:59.658Z,21.08
2018-09-20T00:48:59.659Z,21.07
2018-09-20T00:49:59.929Z,21.08
2018-09-20T00:51:00.294Z,21.07
2018-09-20T00:51:59.768Z,21.07
2018-09-20T00:52:59.860Z,21.07
2018-09-20T00:54:00.628Z,21.07
2018-09-20T00:55:00.256Z,21.07
2018-09-20T00:56:00.128Z,21.07
2018-09-20T00:56:59.741Z,21.07
2018-09-20T00:57:59.746Z,21.07
2018-09-20T00:58:59.775Z,21.07
2018-09-20T01:00:00.132Z,21.06
2018-09-20T01:00:59.740Z,21.07
2018-09-20T01:02:00.241Z,21.07
2018-09-20T01:02:59.749Z,21.06
2018-09-20T01:04:00.226Z,21.07
2018-09-20T01:05:00.059Z,21.07
2018-09-20T01:05:59.659Z,21.06
2018-09-20T01:06:59.976Z,21.05
2018-09-20T01:07:59.842Z,21.07
2018-09-20T01:08:59.777Z,21.07
2018-09-20T01:09:59.644Z,21.04
2018-09-20T01:10:59.833Z,21.05
2018-09-20T01:11:59.783Z,21.06
2018-09-20T01:12:59.743Z,21.05
2018-09-20T01:13:59.864Z,21.05
2018-09-20T01:14:59.983Z,21.04
2018-09-20T01:15:59.834Z,21.04
2018-09-20T01:16:59.821Z,21.05
2018-09-20T01:17:59.939Z,21.05
2018-09-20T01:18:59.748Z,21.05
2018-09-20T01:19:59.864Z,21.05
2018-09-20T01:20:59.697Z,21.05
2018-09-20T01:21:59.823Z,21.04
2018-09-20T01:22:59.724Z,21.05
2018-09-20T01:23:59.693Z,21.05
2018-09-20T01:24:59.824Z,21.04
2018-09-20T01:25:59.764Z,21.02
2018-09-20T01:26:59.786Z,21.04
2018-09-20T01:27:59.738Z,21.05
2018-09-20T01:28:59.895Z,21.04
2018-09-20T01:30:00.004Z,21.03
2018-09-20T01:30:59.684Z,21.04
2018-09-20T01:31:59.817Z,21.04
2018-09-20T01:32:59.780Z,21.04
2018-09-20T01:34:00.153Z,21.03
2018-09-20T01:34:59.711Z,21.03
2018-09-20T01:35:59.738Z,21.03
2018-09-20T01:36:59.622Z,21.03
2018-09-20T01:37:59.943Z,21.03
2018-09-20T01:38:59.679Z,21.03
2018-09-20T01:39:59.652Z,21.03
2018-09-20T01:40:59.829Z,21.04
2018-09-20T01:41:59.727Z,21.03
2018-09-20T01:42:59.748Z,21.03
2018-09-20T01:43:59.691Z,21.03
2018-09-20T01:44:59.800Z,21.02
2018-09-20T01:45:59.808Z,21.01
2018-09-20T01:46:59.763Z,21.02
2018-09-20T01:47:59.962Z,21.03
2018-09-20T01:48:59.741Z,21.02
2018-09-20T01:49:59.825Z,21.02
2018-09-20T01:50:59.669Z,21.03
2018-09-20T01:51:59.934Z,21.02
2018-09-20T01:52:59.984Z,21.01
2018-09-20T01:54:00.034Z,21.02
2018-09-20T01:54:59.759Z,21.02
2018-09-20T01:55:59.910Z,21.01
2018-09-20T01:56:59.992Z,21.01
2018-09-20T01:57:59.874Z,21.02
2018-09-20T01:58:59.862Z,21.02
2018-09-20T01:59:59.950Z,21.01
2018-09-20T02:00:59.904Z,21.02
2018-09-20T02:01:59.921Z,21.02
2018-09-20T02:02:59.713Z,21.01
2018-09-20T02:03:59.904Z,21.01
2018-09-20T02:04:59.926Z,21.01
2018-09-20T02:05:59.674Z,21.01
2018-09-20T02:06:59.834Z,21.01
2018-09-20T02:07:59.778Z,21.01
2018-09-20T02:08:59.758Z,21.01
2018-09-20T02:10:00.220Z,21.01
2018-09-20T02:10:59.639Z,21.01
2018-09-20T02:11:59.881Z,21.01
2018-09-20T02:12:59.869Z,21.01
2018-09-20T02:13:59.805Z,21.01
2018-09-20T02:14:59.934Z,21.01
2018-09-20T02:15:59.612Z,21.02
2018-09-20T02:16:59.852Z,21.01
2018-09-20T02:17:59.779Z,21.01
2018-09-20T02:18:59.646Z,21.01
2018-09-20T02:19:59.654Z,21.01
2018-09-20T02:20:59.792Z,21.01
2018-09-20T02:21:59.688Z,21
2018-09-20T02:22:59.741Z,21.01
2018-09-20T02:24:00.090Z,21.01
2018-09-20T02:24:59.778Z,21.01
2018-09-20T02:25:59.719Z,21.01
2018-09-20T02:27:00.002Z,21.01
2018-09-20T02:27:59.838Z,21.01
2018-09-20T02:28:59.648Z,21.01
2018-09-20T02:29:59.725Z,21
2018-09-20T02:30:59.944Z,21
2018-09-20T02:31:59.662Z,21
2018-09-20T02:32:59.788Z,21.01
2018-09-20T02:33:59.878Z,21
2018-09-20T02:34:59.826Z,21
2018-09-20T02:35:59.707Z,21
2018-09-20T02:36:59.720Z,21.01
2018-09-20T02:37:59.697Z,21.01
2018-09-20T02:38:59.860Z,21.01
2018-09-20T02:39:59.930Z,21.01
2018-09-20T02:40:59.729Z,21.01
2018-09-20T02:41:59.799Z,21.01
2018-09-20T02:42:59.718Z,21.01
2018-09-20T02:43:59.710Z,21
2018-09-20T02:44:59.737Z,21.01
2018-09-20T02:46:00.050Z,21
2018-09-20T02:46:59.760Z,21
2018-09-20T02:47:59.758Z,21
2018-09-20T02:48:59.863Z,21
2018-09-20T02:49:59.797Z,20.98
2018-09-20T02:50:59.762Z,21
2018-09-20T02:51:59.823Z,20.99
2018-09-20T02:52:59.689Z,21.01
2018-09-20T02:54:00.228Z,21.01
2018-09-20T02:54:59.747Z,21.01
2018-09-20T02:55:59.763Z,21.01
2018-09-20T02:56:59.698Z,21.01
2018-09-20T02:57:59.811Z,21.01
2018-09-20T02:59:00.745Z,21
2018-09-20T02:59:59.753Z,21.01
2018-09-20T03:00:59.815Z,21.01
2018-09-20T03:01:59.639Z,21.01
2018-09-20T03:03:00.010Z,21
2018-09-20T03:03:59.807Z,21.01
2018-09-20T03:04:59.884Z,21.01
2018-09-20T03:05:59.868Z,21
2018-09-20T03:06:59.745Z,21
2018-09-20T03:07:59.742Z,21.01
2018-09-20T03:08:59.830Z,20.99
2018-09-20T03:09:59.766Z,20.99
2018-09-20T03:10:59.777Z,20.99
2018-09-20T03:12:00.003Z,20.99
2018-09-20T03:12:59.652Z,20.99
2018-09-20T03:14:00.074Z,21
2018-09-20T03:14:59.734Z,21
2018-09-20T03:16:00.078Z,21
2018-09-20T03:16:59.628Z,21
2018-09-20T03:17:59.845Z,20.99
2018-09-20T03:18:59.817Z,20.99
2018-09-20T03:19:59.985Z,21
2018-09-20T03:20:59.803Z,20.98
2018-09-20T03:21:59.594Z,20.99
2018-09-20T03:22:59.898Z,20.98
2018-09-20T03:23:59.875Z,20.98
2018-09-20T03:24:59.814Z,20.97
2018-09-20T03:25:59.990Z,20.98
2018-09-20T03:26:59.874Z,20.99
2018-09-20T03:27:59.707Z,20.99
2018-09-20T03:28:59.574Z,21
2018-09-20T03:29:59.914Z,20.98
2018-09-20T03:30:59.837Z,20.97
2018-09-20T03:31:59.992Z,20.99
2018-09-20T03:32:59.724Z,20.98
2018-09-20T03:33:59.758Z,20.97
2018-09-20T03:35:00.062Z,20.97
2018-09-20T03:35:59.808Z,20.97
2018-09-20T03:36:59.816Z,20.97
2018-09-20T03:37:59.833Z,20.98
2018-09-20T03:39:00.016Z,20.98
2018-09-20T03:39:59.700Z,20.98
2018-09-20T03:40:59.855Z,20.97
2018-09-20T03:41:59.860Z,20.97
2018-09-20T03:43:00.095Z,20.98
2018-09-20T03:43:59.779Z,20.97
2018-09-20T03:44:59.873Z,20.98
2018-09-20T03:45:59.800Z,20.98
2018-09-20T03:46:59.758Z,20.98
2018-09-20T03:47:59.657Z,20.98
2018-09-20T03:48:59.954Z,20.97
2018-09-20T03:49:59.790Z,20.98
2018-09-20T03:50:59.889Z,20.97
2018-09-20T03:51:59.795Z,20.98
2018-09-20T03:52:59.791Z,20.98
2018-09-20T03:53:59.698Z,20.96
2018-09-20T03:54:59.698Z,20.97
2018-09-20T03:55:59.663Z,20.97
2018-09-20T03:56:59.756Z,20.98
2018-09-20T03:57:59.805Z,20.98
2018-09-20T03:58:59.677Z,20.98
2018-09-20T03:59:59.719Z,20.98
2018-09-20T04:00:59.806Z,20.96
2018-09-20T04:01:59.691Z,20.96
2018-09-20T04:02:59.825Z,20.97
2018-09-20T04:03:59.811Z,20.96
2018-09-20T04:04:59.803Z,20.97
2018-09-20T04:05:59.748Z,20.96
2018-09-20T04:06:59.969Z,20.96
2018-09-20T04:07:59.722Z,20.96
2018-09-20T04:08:59.875Z,20.96
2018-09-20T04:09:59.921Z,20.96
2018-09-20T04:10:59.800Z,20.95
2018-09-20T04:12:00.081Z,20.96
2018-09-20T04:12:59.772Z,20.96
2018-09-20T04:13:59.738Z,20.96
2018-09-20T04:15:00.005Z,20.97
2018-09-20T04:15:59.965Z,20.97
2018-09-20T04:16:59.877Z,20.96
2018-09-20T04:17:59.991Z,20.97
2018-09-20T04:19:00.133Z,20.97
2018-09-20T04:19:59.764Z,20.97
2018-09-20T04:20:59.887Z,20.97
2018-09-20T04:21:59.765Z,20.97
2018-09-20T04:22:59.894Z,20.97
2018-09-20T04:23:59.785Z,20.96
2018-09-20T04:24:59.728Z,20.96
2018-09-20T04:25:59.824Z,20.96
2018-09-20T04:26:59.854Z,20.96
2018-09-20T04:27:59.692Z,20.96
2018-09-20T04:28:59.749Z,20.96
2018-09-20T04:29:59.977Z,20.95
2018-09-20T04:30:59.984Z,20.95
2018-09-20T04:31:59.755Z,20.96
2018-09-20T04:32:59.873Z,20.96
2018-09-20T04:33:59.746Z,20.96
2018-09-20T04:34:59.827Z,20.96
2018-09-20T04:35:59.882Z,20.95
2018-09-20T04:36:59.772Z,20.95
2018-09-20T04:37:59.718Z,20.95
2018-09-20T04:38:59.757Z,20.95
2018-09-20T04:39:59.808Z,20.95
2018-09-20T04:40:59.721Z,20.95
2018-09-20T04:41:59.703Z,20.95
2018-09-20T04:42:59.766Z,20.95
2018-09-20T04:43:59.973Z,20.95
2018-09-20T04:44:59.644Z,20.95
2018-09-20T04:46:00.049Z,20.95
2018-09-20T04:46:59.879Z,20.95
2018-09-20T04:48:00.012Z,20.95
2018-09-20T04:48:59.925Z,20.95
2018-09-20T04:50:00.225Z,20.95
2018-09-20T04:50:59.729Z,20.95
2018-09-20T04:51:59.747Z,20.95
2018-09-20T04:53:00.714Z,20.94
2018-09-20T04:53:59.932Z,20.94
2018-09-20T04:54:59.807Z,20.94
2018-09-20T04:55:59.563Z,20.94
2018-09-20T04:56:59.663Z,20.95
2018-09-20T04:57:59.982Z,20.95
2018-09-20T04:58:59.744Z,20.95
2018-09-20T05:00:00.309Z,20.95
2018-09-20T05:00:59.777Z,20.93
2018-09-20T05:01:59.749Z,20.94
2018-09-20T05:02:59.729Z,20.93
2018-09-20T05:03:59.763Z,20.92
2018-09-20T05:04:59.840Z,20.93
2018-09-20T05:05:59.772Z,20.94
2018-09-20T05:06:59.815Z,20.93
2018-09-20T05:07:59.762Z,20.94
2018-09-20T05:08:59.618Z,20.95
2018-09-20T05:10:00.056Z,20.93
2018-09-20T05:10:59.717Z,20.93
2018-09-20T05:11:59.762Z,20.92
2018-09-20T05:12:59.630Z,20.91
2018-09-20T05:13:59.763Z,20.93
2018-09-20T05:14:59.726Z,20.92
2018-09-20T05:15:59.774Z,20.93
2018-09-20T05:16:59.849Z,20.93
2018-09-20T05:17:59.672Z,20.93
2018-09-20T05:18:59.669Z,20.93
2018-09-20T05:19:59.626Z,20.93
2018-09-20T05:20:59.805Z,20.93
2018-09-20T05:21:59.536Z,20.94
2018-09-20T05:22:59.754Z,20.93
2018-09-20T05:23:59.627Z,20.92
2018-09-20T05:24:59.755Z,20.92
2018-09-20T05:25:59.710Z,20.93
2018-09-20T05:26:59.697Z,20.92
2018-09-20T05:27:59.660Z,20.92
2018-09-20T05:28:59.615Z,20.92
2018-09-20T05:29:59.691Z,20.93
2018-09-20T05:30:59.651Z,20.92
2018-09-20T05:31:59.530Z,20.92
2018-09-20T05:32:59.834Z,20.92
2018-09-20T05:33:59.632Z,20.92
2018-09-20T05:35:00.030Z,20.93
2018-09-20T05:35:59.584Z,20.93
2018-09-20T05:36:59.685Z,20.92
2018-09-20T05:37:59.719Z,20.92
2018-09-20T05:39:00.097Z,20.92
2018-09-20T05:39:59.956Z,20.92
2018-09-20T05:41:00.197Z,20.91
2018-09-20T05:41:59.730Z,20.92
2018-09-20T05:42:59.784Z,20.93
2018-09-20T05:43:59.670Z,20.92
2018-09-20T05:44:59.712Z,20.92
2018-09-20T05:45:59.671Z,20.92
2018-09-20T05:46:59.739Z,20.92
2018-09-20T05:47:59.800Z,20.92
2018-09-20T05:48:59.734Z,20.91
2018-09-20T05:49:59.612Z,20.92
2018-09-20T05:50:59.839Z,20.91
2018-09-20T05:51:59.854Z,20.91
2018-09-20T05:52:59.840Z,20.91
2018-09-20T05:53:59.508Z,20.91
2018-09-20T05:54:59.939Z,20.91
2018-09-20T05:55:59.675Z,20.92
2018-09-20T05:56:59.524Z,20.91
2018-09-20T05:57:59.607Z,20.91
2018-09-20T05:58:59.976Z,20.91
2018-09-20T05:59:59.800Z,20.91
2018-09-20T06:00:59.526Z,20.91
2018-09-20T06:01:59.750Z,20.92
2018-09-20T06:02:59.817Z,20.9
2018-09-20T06:03:59.900Z,20.91
2018-09-20T06:04:59.953Z,20.93
2018-09-20T06:06:00.781Z,20.92
2018-09-20T06:06:59.849Z,20.91
2018-09-20T06:07:59.715Z,20.91
2018-09-20T06:08:59.768Z,20.91
2018-09-20T06:09:59.880Z,20.91
2018-09-20T06:10:59.708Z,20.92
2018-09-20T06:11:59.775Z,20.91
2018-09-20T06:12:59.659Z,20.91
2018-09-20T06:13:59.733Z,20.91
2018-09-20T06:14:59.908Z,20.89
2018-09-20T06:15:59.773Z,20.88
2018-09-20T06:16:59.850Z,20.87
2018-09-20T06:17:59.817Z,20.77
2018-09-20T06:18:59.814Z,20.75
2018-09-20T06:19:59.759Z,20.75
2018-09-20T06:20:59.828Z,20.75
2018-09-20T06:21:59.827Z,20.72
2018-09-20T06:22:59.689Z,20.7
2018-09-20T06:23:59.534Z,20.64
2018-09-20T06:24:59.877Z,20.68
2018-09-20T06:25:59.680Z,20.69
2018-09-20T06:26:59.715Z,20.72
2018-09-20T06:28:00.022Z,20.75
2018-09-20T06:28:59.552Z,20.78
2018-09-20T06:29:59.653Z,20.79
2018-09-20T06:30:59.838Z,20.78
2018-09-20T06:31:59.672Z,20.83
2018-09-20T06:32:59.676Z,20.83
2018-09-20T06:33:59.707Z,20.84
2018-09-20T06:35:00.379Z,20.85
2018-09-20T06:35:59.873Z,20.86
2018-09-20T06:37:00.661Z,20.88
2018-09-20T06:37:59.731Z,20.89
2018-09-20T06:38:59.630Z,20.89
2018-09-20T06:39:59.699Z,20.88
2018-09-20T06:41:00.538Z,20.89
2018-09-20T06:41:59.705Z,20.89
2018-09-20T06:42:59.562Z,20.91
2018-09-20T06:43:59.731Z,20.91
2018-09-20T06:44:59.524Z,20.92
2018-09-20T06:45:59.634Z,20.94
2018-09-20T06:46:59.674Z,20.95
2018-09-20T06:47:59.557Z,20.96
2018-09-20T06:48:59.571Z,20.99
2018-09-20T06:49:59.931Z,20.99
2018-09-20T06:50:59.615Z,21
2018-09-20T06:51:59.682Z,21.01
2018-09-20T06:52:59.749Z,21.01
2018-09-20T06:53:59.753Z,21.03
2018-09-20T06:54:59.526Z,21.02
2018-09-20T06:55:59.646Z,21.01
2018-09-20T06:57:00.139Z,21.02
2018-09-20T06:57:59.719Z,21.02
2018-09-20T06:58:59.498Z,21.03
2018-09-20T06:59:59.492Z,21.05
2018-09-20T07:00:59.769Z,21.04
2018-09-20T07:01:59.674Z,21.03
2018-09-20T07:03:00.507Z,21.03
2018-09-20T07:03:59.709Z,21.04
2018-09-20T07:04:59.865Z,21.04
2018-09-20T07:05:59.635Z,21.04
2018-09-20T07:06:59.896Z,21.05
2018-09-20T07:07:59.731Z,21.04
2018-09-20T07:08:59.549Z,21.05
2018-09-20T07:09:59.774Z,21.05
2018-09-20T07:10:59.749Z,21.05
2018-09-20T07:11:59.849Z,21.05
2018-09-20T07:12:59.734Z,21.06
2018-09-20T07:13:59.695Z,21.06
2018-09-20T07:14:59.734Z,21.06
2018-09-20T07:16:00.037Z,21.07
2018-09-20T07:16:59.728Z,21.07
2018-09-20T07:17:59.512Z,21.08
2018-09-20T07:19:00.214Z,21.09
2018-09-20T07:19:59.712Z,21.08
2018-09-20T07:20:59.613Z,21.07
2018-09-20T07:21:59.648Z,21.07
2018-09-20T07:22:59.901Z,21.07
2018-09-20T07:24:00.186Z,21.08
2018-09-20T07:25:00.189Z,21.07
2018-09-20T07:25:59.643Z,21.06
2018-09-20T07:26:59.711Z,21.05
2018-09-20T07:27:59.975Z,21.04
2018-09-20T07:29:00.095Z,21.03
2018-09-20T07:29:59.723Z,21.03
2018-09-20T07:30:59.738Z,21.03
2018-09-20T07:31:59.522Z,21.02
2018-09-20T07:32:59.837Z,21.01
2018-09-20T07:33:59.700Z,21.01
2018-09-20T07:34:59.687Z,21.01
2018-09-20T07:35:59.660Z,21.02
2018-09-20T07:36:59.979Z,21.05
2018-09-20T07:37:59.666Z,21.06
2018-09-20T07:38:59.629Z,21.08
2018-09-20T07:39:59.598Z,21.11
2018-09-20T07:40:59.492Z,21.12
2018-09-20T07:41:59.701Z,21.08
2018-09-20T07:42:59.564Z,21.1
2018-09-20T07:43:59.530Z,21.12
2018-09-20T07:44:59.659Z,21.13
2018-09-20T07:45:59.576Z,21.16
2018-09-20T07:46:59.497Z,21.13
2018-09-20T07:47:59.738Z,21.14
2018-09-20T07:48:59.858Z,21.15
2018-09-20T07:49:59.775Z,21.16
2018-09-20T07:50:59.864Z,21.16
2018-09-20T07:51:59.804Z,21.18
2018-09-20T07:52:59.669Z,21.18
2018-09-20T07:53:59.508Z,21.2
2018-09-20T07:54:59.747Z,21.21
2018-09-20T07:55:59.700Z,21.2
2018-09-20T07:56:59.603Z,21.21
2018-09-20T07:57:59.553Z,21.24
2018-09-20T07:58:59.831Z,21.24
2018-09-20T07:59:59.812Z,21.24
2018-09-20T08:00:59.752Z,21.23
2018-09-20T08:02:00.866Z,21.23
2018-09-20T08:02:59.540Z,21.24
2018-09-20T08:03:59.944Z,21.24
2018-09-20T08:04:59.624Z,21.26
2018-09-20T08:06:00.005Z,21.26
2018-09-20T08:07:00.525Z,21.27
2018-09-20T08:07:59.729Z,21.27
2018-09-20T08:08:59.433Z,21.27
2018-09-20T08:09:59.793Z,21.28
2018-09-20T08:10:59.489Z,21.29
2018-09-20T08:11:59.858Z,21.29
2018-09-20T08:13:01.014Z,21.3
2018-09-20T08:13:59.985Z,21.3
2018-09-20T08:14:59.523Z,21.3
2018-09-20T08:15:59.833Z,21.3
2018-09-20T08:16:59.510Z,21.33
2018-09-20T08:17:59.752Z,21.33
2018-09-20T08:18:59.623Z,21.34
2018-09-20T08:19:59.686Z,21.33
2018-09-20T08:20:59.580Z,21.32
2018-09-20T08:21:59.772Z,21.31
2018-09-20T08:22:59.653Z,21.31
2018-09-20T08:23:59.940Z,21.33
2018-09-20T08:24:59.916Z,21.27
2018-09-20T08:25:59.617Z,21.28
2018-09-20T08:26:59.610Z,21.29
2018-09-20T08:27:59.539Z,21.31
2018-09-20T08:28:59.794Z,21.32
2018-09-20T08:29:59.970Z,21.32
2018-09-20T08:30:59.928Z,21.31
2018-09-20T08:31:59.773Z,21.3
2018-09-20T08:32:59.632Z,21.31
2018-09-20T08:33:59.675Z,21.3
2018-09-20T08:34:59.550Z,21.32
2018-09-20T08:35:59.706Z,21.34
2018-09-20T08:37:00.662Z,21.36
2018-09-20T08:37:59.832Z,21.35
2018-09-20T08:38:59.697Z,21.36
2018-09-20T08:39:59.821Z,21.37
2018-09-20T08:40:59.452Z,21.39
2018-09-20T08:41:59.620Z,21.38
2018-09-20T08:42:59.458Z,21.35
2018-09-20T08:43:59.896Z,21.36
2018-09-20T08:44:59.784Z,21.36
2018-09-20T08:45:59.838Z,21.39
2018-09-20T08:46:59.691Z,21.4
2018-09-20T08:47:59.620Z,21.4
2018-09-20T08:48:59.585Z,21.41
2018-09-20T08:49:59.808Z,21.42
2018-09-20T08:51:00.444Z,21.42
2018-09-20T08:51:59.640Z,21.42
2018-09-20T08:52:59.700Z,21.43
2018-09-20T08:53:59.489Z,21.44
2018-09-20T08:54:59.555Z,21.45
2018-09-20T08:55:59.727Z,21.42
2018-09-20T08:57:00.683Z,21.42
2018-09-20T08:57:59.739Z,21.38
2018-09-20T08:58:59.477Z,21.42
2018-09-20T08:59:59.459Z,21.37
2018-09-20T09:00:59.596Z,21.38
2018-09-20T09:01:59.542Z,21.41
2018-09-20T09:02:59.783Z,21.37
2018-09-20T09:03:59.602Z,21.39
2018-09-20T09:04:59.616Z,21.41
2018-09-20T09:05:59.607Z,21.42
2018-09-20T09:06:59.713Z,21.44
2018-09-20T09:07:59.622Z,21.45
2018-09-20T09:08:59.467Z,21.41
2018-09-20T09:10:00.052Z,21.42
2018-09-20T09:10:59.836Z,21.43
2018-09-20T09:12:00.599Z,21.43
2018-09-20T09:13:00.100Z,21.45
2018-09-20T09:13:59.769Z,21.45
2018-09-20T09:14:59.752Z,21.46
2018-09-20T09:15:59.460Z,21.46
2018-09-20T09:16:59.537Z,21.44
2018-09-20T09:17:59.545Z,21.46
2018-09-20T09:18:59.740Z,21.44
2018-09-20T09:19:59.671Z,21.44
2018-09-20T09:20:59.707Z,21.44
2018-09-20T09:21:59.955Z,21.43
2018-09-20T09:22:59.495Z,21.41
2018-09-20T09:24:00.048Z,21.4
2018-09-20T09:24:59.826Z,21.43
2018-09-20T09:25:59.742Z,21.45
2018-09-20T09:26:59.670Z,21.45
2018-09-20T09:27:59.504Z,21.46
2018-09-20T09:28:59.776Z,21.48
2018-09-20T09:29:59.707Z,21.5
2018-09-20T09:30:59.980Z,21.51
2018-09-20T09:31:59.488Z,21.51
2018-09-20T09:32:59.579Z,21.53
2018-09-20T09:34:00.088Z,21.53
2018-09-20T09:34:59.663Z,21.51
2018-09-20T09:35:59.699Z,21.48
2018-09-20T09:36:59.815Z,21.48
2018-09-20T09:37:59.834Z,21.48
2018-09-20T09:38:59.520Z,21.47
2018-09-20T09:39:59.731Z,21.45
2018-09-20T09:40:59.777Z,21.45
2018-09-20T09:41:59.751Z,21.44
2018-09-20T09:42:59.416Z,21.43
2018-09-20T09:43:59.919Z,21.43
2018-09-20T09:44:59.999Z,21.4
2018-09-20T09:45:59.802Z,21.4
2018-09-20T09:46:59.580Z,21.41
2018-09-20T09:48:00.319Z,21.44
2018-09-20T09:48:59.661Z,21.45
2018-09-20T09:49:59.606Z,21.47
2018-09-20T09:50:59.797Z,21.48
2018-09-20T09:51:59.971Z,21.5
2018-09-20T09:52:59.756Z,21.5
2018-09-20T09:53:59.735Z,21.51
2018-09-20T09:54:59.452Z,21.54
2018-09-20T09:55:59.453Z,21.52
2018-09-20T09:56:59.735Z,21.53
2018-09-20T09:57:59.705Z,21.54
2018-09-20T09:58:59.804Z,21.54
2018-09-20T09:59:59.907Z,21.53
2018-09-20T10:00:59.703Z,21.54
2018-09-20T10:01:59.496Z,21.53
2018-09-20T10:03:00.123Z,21.54
2018-09-20T10:03:59.982Z,21.54
2018-09-20T10:04:59.814Z,21.53
2018-09-20T10:05:59.599Z,21.53
2018-09-20T10:07:00.591Z,21.53
2018-09-20T10:08:00.056Z,21.52
2018-09-20T10:08:59.968Z,21.5
2018-09-20T10:09:59.837Z,21.49
2018-09-20T10:10:59.462Z,21.49
2018-09-20T10:11:59.552Z,21.49
2018-09-20T10:12:59.726Z,21.48
2018-09-20T10:13:59.784Z,21.47
2018-09-20T10:14:59.816Z,21.47
2018-09-20T10:15:59.725Z,21.48
2018-09-20T10:16:59.766Z,21.46
2018-09-20T10:17:59.547Z,21.44
2018-09-20T10:18:59.571Z,21.45
2018-09-20T10:20:00.072Z,21.43
2018-09-20T10:20:59.435Z,21.44
2018-09-20T10:21:59.493Z,21.44
2018-09-20T10:22:59.520Z,21.47
2018-09-20T10:24:00.332Z,21.47
2018-09-20T10:24:59.575Z,21.48
2018-09-20T10:25:59.495Z,21.46
2018-09-20T10:26:59.623Z,21.45
2018-09-20T10:28:00.013Z,21.48
2018-09-20T10:28:59.767Z,21.48
2018-09-20T10:29:59.666Z,21.49
2018-09-20T10:30:59.663Z,21.48
2018-09-20T10:31:59.731Z,21.48
2018-09-20T10:32:59.736Z,21.48
2018-09-20T10:34:00.579Z,21.48
2018-09-20T10:34:59.678Z,21.48
2018-09-20T10:35:59.568Z,21.48
2018-09-20T10:36:59.751Z,21.47
2018-09-20T10:37:59.859Z,21.46
2018-09-20T10:38:59.823Z,21.46
2018-09-20T10:39:59.675Z,21.45
2018-09-20T10:40:59.619Z,21.46
2018-09-20T10:41:59.487Z,21.45
2018-09-20T10:42:59.796Z,21.47
2018-09-20T10:43:59.787Z,21.45
2018-09-20T10:44:59.554Z,21.45
2018-09-20T10:45:59.818Z,21.46
2018-09-20T10:46:59.876Z,21.44
2018-09-20T10:47:59.442Z,21.45
2018-09-20T10:48:59.444Z,21.47
2018-09-20T10:49:59.682Z,21.46
2018-09-20T10:51:00.235Z,21.46
2018-09-20T10:51:59.584Z,21.46
2018-09-20T10:52:59.528Z,21.45
2018-09-20T10:53:59.971Z,21.45
2018-09-20T10:54:59.600Z,21.46
2018-09-20T10:55:59.498Z,21.46
2018-09-20T10:56:59.842Z,21.47
2018-09-20T10:57:59.720Z,21.44
2018-09-20T10:58:59.597Z,21.42
2018-09-20T10:59:59.802Z,21.42
2018-09-20T11:00:59.915Z,21.41
2018-09-20T11:01:59.768Z,21.39
2018-09-20T11:03:00.621Z,21.4
2018-09-20T11:03:59.440Z,21.4
2018-09-20T11:04:59.945Z,21.4
2018-09-20T11:05:59.863Z,21.39
2018-09-20T11:06:59.701Z,21.4
2018-09-20T11:07:59.694Z,21.39
2018-09-20T11:08:59.790Z,21.39
2018-09-20T11:09:59.787Z,21.37
2018-09-20T11:11:00.787Z,21.38
2018-09-20T11:11:59.584Z,21.38
2018-09-20T11:12:59.535Z,21.38
2018-09-20T11:13:59.760Z,21.37
2018-09-20T11:14:59.823Z,21.37
2018-09-20T11:15:59.979Z,21.36
2018-09-20T11:16:59.838Z,21.37
2018-09-20T11:17:59.712Z,21.36
2018-09-20T11:18:59.748Z,21.36
2018-09-20T11:19:59.398Z,21.36
2018-09-20T11:20:59.496Z,21.36
2018-09-20T11:21:59.511Z,21.36
2018-09-20T11:22:59.777Z,21.35
2018-09-20T11:23:59.879Z,21.35
2018-09-20T11:24:59.374Z,21.35
2018-09-20T11:26:01.407Z,21.35
2018-09-20T11:26:59.895Z,21.34
2018-09-20T11:27:59.563Z,21.34
2018-09-20T11:28:59.693Z,21.34
2018-09-20T11:29:59.591Z,21.33
2018-09-20T11:30:59.937Z,21.32
2018-09-20T11:31:59.432Z,21.31
2018-09-20T11:32:59.475Z,21.32
2018-09-20T11:33:59.443Z,21.32
2018-09-20T11:34:59.764Z,21.31
2018-09-20T11:35:59.873Z,21.31
2018-09-20T11:36:59.554Z,21.31
2018-09-20T11:37:59.676Z,21.31
2018-09-20T11:38:59.505Z,21.31
2018-09-20T11:39:59.564Z,21.31
2018-09-20T11:40:59.406Z,21.3
2018-09-20T11:41:59.461Z,21.3
2018-09-20T11:42:59.713Z,21.3
2018-09-20T11:43:59.789Z,21.3
2018-09-20T11:44:59.685Z,21.3
2018-09-20T11:45:59.481Z,21.3
2018-09-20T11:46:59.486Z,21.3
2018-09-20T11:47:59.364Z,21.31
2018-09-20T11:48:59.659Z,21.34
2018-09-20T11:49:59.595Z,21.34
2018-09-20T11:50:59.545Z,21.36
2018-09-20T11:51:59.451Z,21.36
2018-09-20T11:52:59.508Z,21.35
2018-09-20T11:53:59.463Z,21.36
2018-09-20T11:54:59.508Z,21.36
2018-09-20T11:55:59.670Z,21.36
2018-09-20T11:56:59.572Z,21.36
2018-09-20T11:57:59.569Z,21.36
2018-09-20T11:58:59.606Z,21.37
2018-09-20T11:59:59.755Z,21.39
2018-09-20T12:01:00.067Z,21.38
2018-09-20T12:02:00.710Z,21.37
2018-09-20T12:02:59.634Z,21.36
2018-09-20T12:03:59.497Z,21.36
2018-09-20T12:04:59.777Z,21.36
2018-09-20T12:05:59.579Z,21.37
2018-09-20T12:06:59.567Z,21.36
2018-09-20T12:07:59.460Z,21.36
2018-09-20T12:08:59.628Z,21.36
2018-09-20T12:10:00.225Z,21.37
2018-09-20T12:10:59.838Z,21.4
2018-09-20T12:11:59.507Z,21.42
2018-09-20T12:12:59.983Z,21.42
2018-09-20T12:13:59.583Z,21.45
2018-09-20T12:14:59.580Z,21.45
2018-09-20T12:15:59.725Z,21.47
2018-09-20T12:16:59.514Z,21.47
2018-09-20T12:17:59.736Z,21.48
2018-09-20T12:18:59.324Z,21.48
2018-09-20T12:20:00.448Z,21.49
2018-09-20T12:20:59.757Z,21.51
2018-09-20T12:21:59.390Z,21.51
2018-09-20T12:22:59.871Z,21.51
2018-09-20T12:23:59.572Z,21.51
2018-09-20T12:24:59.784Z,21.5
2018-09-20T12:26:00.632Z,21.51
2018-09-20T12:26:59.714Z,21.52
2018-09-20T12:27:59.806Z,21.52
2018-09-20T12:28:59.850Z,21.54
2018-09-20T12:29:59.729Z,21.55
2018-09-20T12:30:59.826Z,21.57
2018-09-20T12:32:00.495Z,21.57
2018-09-20T12:32:59.692Z,21.56
2018-09-20T12:33:59.846Z,21.57
2018-09-20T12:34:59.694Z,21.58
2018-09-20T12:36:00.340Z,21.58
2018-09-20T12:36:59.409Z,21.6
2018-09-20T12:37:59.883Z,21.58
2018-09-20T12:38:59.519Z,21.58
2018-09-20T12:39:59.700Z,21.58
2018-09-20T12:40:59.592Z,21.58
2018-09-20T12:41:59.409Z,21.59
2018-09-20T12:43:01.291Z,21.6
2018-09-20T12:43:59.396Z,21.6
2018-09-20T12:44:59.577Z,21.6
2018-09-20T12:45:59.726Z,21.6
2018-09-20T12:46:59.821Z,21.61
2018-09-20T12:47:59.706Z,21.61
2018-09-20T12:48:59.658Z,21.64
2018-09-20T12:49:59.494Z,21.62
2018-09-20T12:50:59.765Z,21.63
2018-09-20T13:19:13.387Z,21.92
2018-09-20T13:20:14.066Z,21.83
2018-09-20T13:21:13.526Z,21.79
2018-09-20T13:22:13.640Z,21.78
2018-09-20T13:23:13.970Z,21.77
2018-09-20T13:24:13.604Z,21.76